Erie International Tom Ridge Field
KERI : now visible

Airfield :











YOU CAN JOIN US ON...

 
LOGIN :

Register | Disclaimer

   EN    FR    IT 

 









Legend :    VFR   Marginal VFR   IFR   Intensive IFR   Very Intensive IFR
Visi :
Ceiling :
>= 8 km
>= 3000ft
5 to 8 km
1000 to 3000 ft
1500m to 5 km
500 to 1000 ft
800 to 1500m
200 to 500 ft
< 800m
< 200 ft
Symbols :   Thunderstorms  Fog  Heavy snow  Heavy precipitations  Wind > 20 kt







- Airport Elevation : 733 ft
- IATA code : ERI


KERI - Erie International Tom Ridge Field

CURRENT METAR :
  • 190851Z 20004KT 10SM CLR 20/18 A2994 RMK AO2 SLP135 60008 T02000178 56014

EXPIRED METARs :
  • 190751Z 21006KT 10SM OVC110 21/18 A2995 RMK AO2 RAE12 SLP136 P0000 T02060183
  • 190651Z 15010KT 10SM -RA FEW090 BKN110 21/18 A2993 RMK AO2 SLP130 P0008 T02060183

TAF KERI
Valid from the 19 at 07:00 until the 20 at 06:00 UTC


190721Z 1907/2006 18009KT P6SM BKN100
TEMPO 1907/1908 -SHRA
FM190900 23008KT P6SM BKN050
FM191500 28008KT P6SM BKN100
No reported NOTAMs for that airfield.



MET'MAP, your aeronautical weather chart ! - Copyright ORBIFLY December 2007 - Disclaimer

ORBIFLY MET'MAP TEAM :

Programming & Development : Alexandra Zaïnal
Concept & Development : Baudouin d'Aumeries
Co-Development & Prog : Marc-Olivier Méhu
Technical & hardware support : Manuel Goepfert

Contact : metmap@orbifly.com




SOURCES & CREDITS :

   NOAA       Earth
Advisory